Time;durP1;ratioP1;P1;durP2;ratioP2;P2;SDS_P1;SDS_P2;PMS_P1;PMS_P2;Temp;Humidity;BMP_temperature;BMP_pressure;BME280_temperature;BME280_humidity;BME280_pressure;Samples;Min_cycle;Max_cycle;Signal;HPM_P1;HPM_P2
2022/01/11 00:06:14;;;;;;;30.87;16.63;;;3.80;1.00;;;;;;5076446;28;20547;-71
2022/01/11 00:08:54;;;;;;;41.33;19.70;;;3.80;1.00;;;;;;5075385;28;20437;-71
2022/01/11 00:11:25;;;;;;;37.30;17.83;;;3.80;1.00;;;;;;5043193;28;20825;-73
2022/01/11 00:17:38;;;;;;;43.70;18.40;;;3.80;1.00;;;;;;4996388;28;20932;-72
2022/01/11 00:20:17;;;;;;;;;;;;;;;;;;;;;
2022/01/11 00:25:54;;;;;;;37.70;18.17;;;3.80;1.00;;;;;;5076154;28;20403;-71
2022/01/11 00:28:40;;;;;;;33.83;17.00;;;3.80;1.00;;;;;;5057785;28;20433;-71
2022/01/11 00:31:08;;;;;;;38.40;18.20;;;3.80;1.00;;;;;;5057827;28;20437;-72
2022/01/11 00:33:45;;;;;;;34.50;16.53;;;3.70;1.00;;;;;;5073724;28;20939;-74
2022/01/11 00:36:12;;;;;;;40.03;16.20;;;3.80;1.00;;;;;;5075891;28;20458;-74
2022/01/11 00:38:44;;;;;;;35.53;18.30;;;3.80;1.00;;;;;;5040823;28;20900;-74
2022/01/11 00:41:17;;;;;;;39.97;18.27;;;3.80;1.00;;;;;;5075677;28;20429;-71
2022/01/11 00:43:46;;;;;;;35.63;16.30;;;3.80;1.00;;;;;;5057825;28;20411;-72
2022/01/11 00:46:23;;;;;;;35.87;16.90;;;3.90;1.00;;;;;;5058102;28;20459;-74
2022/01/11 00:48:50;;;;;;;40.70;15.40;;;3.90;1.00;;;;;;5074287;28;20412;-71
2022/01/11 00:51:16;;;;;;;35.57;18.53;;;3.80;1.00;;;;;;5057586;28;20426;-73
2022/01/11 00:53:42;;;;;;;36.53;16.80;;;3.80;1.00;;;;;;5040387;28;20418;-71
2022/01/11 00:56:12;;;;;;;36.60;16.73;;;3.80;1.00;;;;;;5075560;28;20513;-74
2022/01/11 00:58:38;;;;;;;37.43;15.17;;;3.80;1.00;;;;;;5074449;28;20445;-73
2022/01/11 01:01:06;;;;;;;37.00;18.67;;;3.80;1.00;;;;;;5057450;28;20973;-71
2022/01/11 01:03:34;;;;;;;27.60;15.47;;;3.80;1.00;;;;;;5057386;28;20425;-75
2022/01/11 01:06:08;;;;;;;35.97;16.17;;;3.80;1.00;;;;;;5057563;28;20414;-71
2022/01/11 01:08:35;;;;;;;30.13;15.53;;;3.70;1.00;;;;;;5056500;28;20431;-74
2022/01/11 01:11:04;;;;;;;38.47;17.60;;;3.70;1.00;;;;;;5075100;28;20502;-71
2022/01/11 01:13:34;;;;;;;25.60;15.53;;;3.70;1.00;;;;;;5072835;28;20417;-74
2022/01/11 01:16:08;;;;;;;29.20;13.73;;;3.70;1.00;;;;;;5073936;28;21000;-73
2022/01/11 01:18:38;;;;;;;28.17;16.20;;;3.70;1.00;;;;;;5072906;28;20495;-72
2022/01/11 01:21:08;;;;;;;29.70;17.10;;;3.70;1.00;;;;;;5074852;28;20424;-73
2022/01/11 01:23:35;;;;;;;31.67;15.33;;;3.70;1.00;;;;;;5057125;28;20405;-74
2022/01/11 01:26:03;;;;;;;30.10;14.47;;;3.70;1.00;;;;;;5024142;28;20424;-72
2022/01/11 01:28:31;;;;;;;31.83;14.80;;;3.80;1.00;;;;;;5056594;28;20419;-79
2022/01/11 01:31:02;;;;;;;30.50;17.27;;;3.80;1.00;;;;;;5074725;28;20498;-72
2022/01/11 01:33:39;;;;;;;23.63;12.40;;;3.80;1.00;;;;;;5040401;28;20444;-72
2022/01/11 01:36:11;;;;;;;31.00;16.60;;;3.80;1.00;;;;;;5073015;28;20469;-72
2022/01/11 01:38:58;;;;;;;26.63;14.07;;;3.80;1.00;;;;;;5073051;28;20469;-72
2022/01/11 01:41:24;;;;;;;28.60;15.50;;;3.70;1.00;;;;;;5074619;28;20436;-71
2022/01/11 01:43:56;;;;;;;28.23;13.00;;;3.70;1.00;;;;;;5074575;28;20489;-73
2022/01/11 01:46:28;;;;;;;26.67;15.27;;;3.80;1.00;;;;;;5074515;28;20408;-71
2022/01/11 01:48:58;;;;;;;24.37;14.20;;;3.70;1.00;;;;;;5056270;28;20415;-72
2022/01/11 01:51:27;;;;;;;27.93;12.87;;;3.70;1.00;;;;;;5073717;28;20440;-74
2022/01/11 01:53:53;;;;;;;23.37;13.43;;;3.70;1.00;;;;;;5056110;28;20478;-73
2022/01/11 01:56:22;;;;;;;26.07;13.97;;;3.60;1.00;;;;;;5056156;28;20432;-71
2022/01/11 01:58:50;;;;;;;29.00;14.67;;;3.60;1.00;;;;;;5055850;28;21111;-73
2022/01/11 02:01:17;;;;;;;30.20;15.30;;;3.70;1.00;;;;;;5073014;28;20424;-73
2022/01/11 02:03:44;;;;;;;29.47;14.80;;;3.70;1.00;;;;;;5074330;28;20777;-71
2022/01/11 02:06:15;;;;;;;20.67;11.57;;;3.70;1.00;;;;;;5056070;28;20424;-74
2022/01/11 02:08:42;;;;;;;31.47;14.83;;;3.70;1.00;;;;;;5055410;28;20468;-73
2022/01/11 02:11:21;;;;;;;26.60;13.77;;;3.70;1.00;;;;;;5055526;28;20445;-72
2022/01/11 02:20:51;;;;;;;31.60;12.10;;;3.70;1.00;;;;;;5072893;28;20449;-71
2022/01/11 02:23:19;;;;;;;23.57;13.13;;;3.60;1.00;;;;;;5055671;28;20433;-74
2022/01/11 02:25:50;;;;;;;30.33;14.50;;;3.60;1.00;;;;;;5073643;28;20463;-72
2022/01/11 02:28:35;;;;;;;27.73;15.00;;;3.60;1.00;;;;;;5038414;28;20420;-74
2022/01/11 02:31:07;;;;;;;29.70;16.27;;;3.60;1.00;;;;;;5043421;28;20441;-72
2022/01/11 02:33:41;;;;;;;29.37;12.90;;;3.60;1.00;;;;;;5039714;28;20424;-74
2022/01/11 02:36:18;;;;;;;24.77;13.90;;;3.60;1.00;;;;;;5073594;28;20453;-72
2022/01/11 02:38:51;;;;;;;18.60;10.97;;;3.50;1.00;;;;;;5055638;28;20474;-72
2022/01/11 02:41:18;;;;;;;30.87;12.90;;;3.60;1.00;;;;;;5056152;28;20442;-71
2022/01/11 02:43:48;;;;;;;30.23;14.43;;;3.60;1.00;;;;;;5055872;28;20495;-71
2022/01/11 02:46:19;;;;;;;20.97;12.87;;;3.60;1.00;;;;;;5038599;28;20429;-74
2022/01/11 02:48:50;;;;;;;25.90;13.57;;;3.50;1.00;;;;;;5054860;28;20430;-71
2022/01/11 02:51:21;;;;;;;31.03;14.87;;;3.50;1.00;;;;;;5056064;28;20527;-72
2022/01/11 02:53:49;;;;;;;21.80;11.87;;;3.60;1.00;;;;;;5055652;28;20816;-72
2022/01/11 02:56:24;;;;;;;25.20;14.07;;;3.60;1.00;;;;;;5055861;28;20498;-74
2022/01/11 02:59:11;;;;;;;25.03;13.90;;;3.60;1.00;;;;;;5055672;28;20419;-72
2022/01/11 03:01:40;;;;;;;27.40;12.93;;;3.60;1.00;;;;;;5071941;28;20484;-74
2022/01/11 03:04:08;;;;;;;36.80;15.30;;;3.60;1.00;;;;;;5073131;28;20409;-74
2022/01/11 03:06:40;;;;;;;28.40;12.03;;;3.70;1.00;;;;;;5072353;28;20402;-73
2022/01/11 03:09:08;;;;;;;25.57;13.37;;;3.60;1.00;;;;;;5071289;28;20512;-73
2022/01/11 03:11:36;;;;;;;23.63;12.40;;;3.60;1.00;;;;;;5038692;28;20971;-73
2022/01/11 03:14:03;;;;;;;28.10;13.40;;;3.60;1.00;;;;;;5072783;28;20444;-71
2022/01/11 03:16:30;;;;;;;21.60;11.97;;;3.60;1.00;;;;;;5055115;28;20426;-73
2022/01/11 03:18:57;;;;;;;16.33;11.47;;;3.70;1.00;;;;;;5071620;28;20770;-74
2022/01/11 03:21:26;;;;;;;18.20;10.87;;;3.70;1.00;;;;;;5072973;28;20434;-74
2022/01/11 03:23:57;;;;;;;25.47;11.63;;;3.70;1.00;;;;;;5054972;28;20413;-75
2022/01/11 03:26:27;;;;;;;20.77;12.07;;;3.70;1.00;;;;;;5054505;28;20412;-71
2022/01/11 03:28:58;;;;;;;22.10;13.07;;;3.70;1.00;;;;;;5054503;28;20427;-73
2022/01/11 03:31:27;;;;;;;16.23;10.10;;;3.70;1.00;;;;;;5072927;28;20433;-71
2022/01/11 03:33:54;;;;;;;21.87;12.53;;;3.70;1.00;;;;;;5072714;28;20571;-71
2022/01/11 03:46:06;;;;;;;20.60;12.57;;;3.70;1.00;;;;;;5071860;28;20398;-72
2022/01/11 03:48:36;;;;;;;20.97;12.07;;;3.70;1.00;;;;;;5054113;28;20444;-72
2022/01/11 03:51:04;;;;;;;17.57;10.00;;;3.60;1.00;;;;;;5054002;28;20797;-71
2022/01/11 03:53:50;;;;;;;20.97;11.30;;;3.60;1.00;;;;;;5072779;28;20408;-73
2022/01/11 03:56:22;;;;;;;13.40;10.13;;;3.70;1.00;;;;;;5041947;28;20404;-74
2022/01/11 03:58:50;;;;;;;14.47;11.07;;;3.70;1.00;;;;;;5039392;28;21369;-73
2022/01/11 04:01:17;;;;;;;18.33;9.17;;;3.70;1.00;;;;;;5054567;28;20946;-73
2022/01/11 04:03:47;;;;;;;15.13;10.70;;;3.70;1.00;;;;;;5054888;28;20496;-72
2022/01/11 04:06:18;;;;;;;18.53;11.20;;;3.70;1.00;;;;;;5071645;28;20412;-75
2022/01/11 04:08:46;;;;;;;20.23;10.83;;;3.70;1.00;;;;;;5054541;28;20426;-71
2022/01/11 04:11:16;;;;;;;15.23;9.73;;;3.70;1.00;;;;;;5054565;28;20472;-72
2022/01/11 04:17:26;;;;;;;20.53;10.07;;;3.70;1.00;;;;;;5072368;28;20762;-71
2022/01/11 04:19:52;;;;;;;16.40;10.17;;;3.60;1.00;;;;;;5072430;28;20404;-72
2022/01/11 04:22:22;;;;;;;17.47;10.77;;;3.60;1.00;;;;;;5075081;28;20894;-72
2022/01/11 04:24:49;;;;;;;17.07;10.13;;;3.50;1.00;;;;;;5041481;28;20423;-71
2022/01/11 04:27:26;;;;;;;12.30;8.50;;;3.60;1.00;;;;;;5058170;28;20882;-72
2022/01/11 04:30:04;;;;;;;;;;;;;;;;;;;;;
2022/01/11 04:32:33;;;;;;;25.00;10.10;;;3.60;1.00;;;;;;5075905;28;20419;-71
2022/01/11 04:35:02;;;;;;;13.00;9.20;;;3.60;1.00;;;;;;5074587;28;20453;-71
2022/01/11 04:37:42;;;;;;;12.90;8.93;;;3.60;1.00;;;;;;5058517;28;20433;-71
2022/01/11 04:40:09;;;;;;;14.33;8.20;;;3.60;1.00;;;;;;5056398;28;20428;-73
2022/01/11 04:56:16;;;;;;;14.23;9.40;;;3.50;1.00;;;;;;5075467;28;20460;-74
2022/01/11 04:58:44;;;;;;;17.33;10.00;;;3.50;1.00;;;;;;5056255;28;20765;-72
2022/01/11 05:01:18;;;;;;;16.37;11.30;;;3.50;1.00;;;;;;5040869;28;20475;-71
2022/01/11 05:03:44;;;;;;;13.07;7.93;;;3.50;1.00;;;;;;5075464;28;20417;-73
2022/01/11 05:06:11;;;;;;;14.73;9.27;;;3.50;1.00;;;;;;5057607;28;20842;-71
2022/01/11 05:08:37;;;;;;;13.43;9.27;;;3.50;1.00;;;;;;5056583;28;20432;-73
2022/01/11 05:11:07;;;;;;;15.20;9.70;;;3.60;1.00;;;;;;5075096;28;20433;-73
2022/01/11 05:13:37;;;;;;;17.37;11.43;;;3.60;1.00;;;;;;5057162;28;20415;-72
2022/01/11 05:16:05;;;;;;;25.37;10.07;;;3.50;1.00;;;;;;5073835;28;20483;-71
2022/01/11 05:18:35;;;;;;;12.87;8.43;;;3.50;1.00;;;;;;5055770;28;20469;-77
2022/01/11 05:21:03;;;;;;;19.07;11.17;;;3.50;1.00;;;;;;5074828;28;20443;-73
2022/01/11 05:23:30;;;;;;;19.60;9.40;;;3.50;1.00;;;;;;5040732;28;20487;-71
2022/01/11 05:26:01;;;;;;;14.53;9.27;;;3.50;1.00;;;;;;5057012;28;20448;-72
2022/01/11 05:28:36;;;;;;;10.87;8.10;;;3.50;1.00;;;;;;5056717;28;20777;-73
2022/01/11 05:31:04;;;;;;;16.03;10.53;;;3.60;1.00;;;;;;5074177;28;20847;-74
2022/01/11 05:33:33;;;;;;;19.00;10.40;;;3.60;1.00;;;;;;5074270;28;20865;-71
2022/01/11 05:36:03;;;;;;;19.87;10.20;;;3.60;1.00;;;;;;5073744;28;20460;-73
2022/01/11 05:38:32;;;;;;;14.63;8.50;;;3.60;1.00;;;;;;5039874;28;20453;-80
2022/01/11 05:41:00;;;;;;;12.23;8.30;;;3.70;1.00;;;;;;5056579;28;20485;-74
2022/01/11 05:43:29;;;;;;;17.63;9.80;;;3.70;1.00;;;;;;5056912;28;20443;-72
2022/01/11 05:46:02;;;;;;;14.80;8.53;;;3.70;1.00;;;;;;5056677;28;20425;-71
2022/01/11 05:48:42;;;;;;;16.50;11.73;;;3.70;1.00;;;;;;5055969;28;20437;-79
2022/01/11 05:51:14;;;;;;;13.90;8.20;;;3.80;1.00;;;;;;5057555;28;20442;-73
2022/01/11 05:53:43;;;;;;;14.40;8.30;;;3.80;1.00;;;;;;5040734;28;20428;-71
2022/01/11 05:56:15;;;;;;;19.80;9.37;;;3.70;1.00;;;;;;5038914;28;20518;-71
2022/01/11 05:58:41;;;;;;;14.80;9.70;;;3.70;1.00;;;;;;5073340;28;20394;-72
2022/01/11 06:01:18;;;;;;;14.13;8.53;;;3.60;1.00;;;;;;5074098;28;20918;-72
2022/01/11 06:03:59;;;;;;;18.10;9.63;;;3.70;1.00;;;;;;5059006;28;20409;-73
2022/01/11 06:06:29;;;;;;;19.90;8.70;;;3.70;1.00;;;;;;5073188;28;20408;-73
2022/01/11 06:09:00;;;;;;;13.07;9.03;;;3.80;1.00;;;;;;5054862;28;20438;-74
2022/01/11 06:11:27;;;;;;;16.67;10.30;;;3.80;1.00;;;;;;5073993;28;20448;-71
2022/01/11 06:13:53;;;;;;;16.30;9.23;;;3.80;1.00;;;;;;5056087;28;20757;-75
2022/01/11 06:16:24;;;;;;;13.23;9.20;;;3.80;1.00;;;;;;5055858;28;20816;-72
2022/01/11 06:18:50;;;;;;;13.43;9.40;;;3.80;1.00;;;;;;5052478;28;20399;-74
2022/01/11 06:21:21;;;;;;;15.33;8.27;;;3.90;1.00;;;;;;5055742;28;20429;-72
2022/01/11 06:23:51;;;;;;;16.73;9.40;;;3.80;1.00;;;;;;5073719;28;20401;-71
2022/01/11 06:26:20;;;;;;;15.90;9.00;;;3.80;1.00;;;;;;5056663;28;20415;-71
2022/01/11 06:28:49;;;;;;;17.63;8.30;;;3.70;1.00;;;;;;5055257;28;20491;-71
2022/01/11 06:31:25;;;;;;;18.23;9.70;;;3.70;1.00;;;;;;5039519;28;20943;-72
2022/01/11 06:33:52;;;;;;;17.80;9.50;;;3.70;1.00;;;;;;5072992;28;20405;-73
2022/01/11 06:36:24;;;;;;;15.83;10.53;;;3.70;1.00;;;;;;5073684;28;20485;-72
2022/01/11 06:39:16;;;;;;;;;;;;;;;;;;;;;
2022/01/11 06:42:37;;;;;;;;;;;;;;;;;;;;;
2022/01/11 06:45:14;;;;;;;23.77;12.10;;;3.80;1.00;;;;;;5049076;28;20410;-73
2022/01/11 06:47:40;;;;;;;24.90;11.97;;;3.80;1.00;;;;;;5073184;28;20171;-72
2022/01/11 06:50:07;;;;;;;22.23;11.30;;;3.80;1.00;;;;;;5071628;28;20447;-72
2022/01/11 06:52:33;;;;;;;20.67;11.77;;;3.80;1.00;;;;;;5073125;28;20467;-70
2022/01/11 06:54:58;;;;;;;20.10;11.37;;;3.80;1.00;;;;;;5073245;28;20444;-72
2022/01/11 06:57:24;;;;;;;22.83;10.70;;;3.80;1.00;;;;;;5073207;28;20928;-72
2022/01/11 06:59:50;;;;;;;15.53;10.00;;;3.80;1.00;;;;;;5072274;28;20175;-69
2022/01/11 07:02:16;;;;;;;25.77;10.80;;;3.80;1.00;;;;;;5073186;28;20168;-70
2022/01/11 07:04:41;;;;;;;25.47;12.80;;;3.80;1.00;;;;;;5055254;28;20420;-70
2022/01/11 07:07:07;;;;;;;23.73;11.43;;;3.70;1.00;;;;;;5072721;28;20194;-71
2022/01/11 07:09:34;;;;;;;27.83;11.00;;;3.60;1.00;;;;;;5071608;28;20186;-73
2022/01/11 07:11:59;;;;;;;23.27;12.40;;;3.60;1.00;;;;;;5055300;28;20952;-71
2022/01/11 07:14:25;;;;;;;22.30;11.00;;;3.50;1.00;;;;;;5072773;28;20535;-72
2022/01/11 07:16:51;;;;;;;27.73;12.80;;;3.50;1.00;;;;;;5073115;28;20171;-73
2022/01/11 07:19:18;;;;;;;26.50;12.97;;;3.50;1.00;;;;;;5072108;28;20285;-72
2022/01/11 07:21:44;;;;;;;25.57;11.60;;;3.50;1.00;;;;;;5072823;28;20504;-73
2022/01/11 07:24:11;;;;;;;20.30;10.87;;;3.50;1.00;;;;;;5072473;28;20396;-74
2022/01/11 07:26:37;;;;;;;23.80;11.03;;;3.50;1.00;;;;;;5072784;28;20397;-71
2022/01/11 07:29:05;;;;;;;29.33;11.70;;;3.50;1.00;;;;;;5072129;28;20407;-71
2022/01/11 07:31:31;;;;;;;29.87;13.37;;;3.50;1.00;;;;;;5072896;28;20633;-73
2022/01/11 07:33:57;;;;;;;25.80;12.03;;;3.50;1.00;;;;;;5072862;28;20400;-72
2022/01/11 07:36:23;;;;;;;23.27;11.37;;;3.50;1.00;;;;;;5072844;28;20404;-72
2022/01/11 07:38:51;;;;;;;19.50;10.60;;;3.50;1.00;;;;;;5072065;28;20225;-71
2022/01/11 07:41:17;;;;;;;27.57;10.60;;;3.50;1.00;;;;;;5072273;28;20720;-72
2022/01/11 07:43:43;;;;;;;22.27;10.67;;;3.50;1.00;;;;;;5072001;28;20445;-72
2022/01/11 07:46:09;;;;;;;20.70;11.40;;;3.60;1.00;;;;;;5072618;28;20910;-71
2022/01/11 07:48:35;;;;;;;20.70;10.97;;;3.60;1.00;;;;;;5071784;28;20409;-71
2022/01/11 07:51:01;;;;;;;27.50;13.00;;;3.60;1.00;;;;;;5072663;28;20474;-72
2022/01/11 07:53:26;;;;;;;26.07;12.17;;;3.60;1.00;;;;;;5072822;28;20170;-72
2022/01/11 07:55:52;;;;;;;26.90;12.17;;;3.60;1.00;;;;;;5057290;28;20548;-72
2022/01/11 07:58:18;;;;;;;27.40;11.70;;;3.60;1.00;;;;;;5076708;28;20250;-73
2022/01/11 08:00:43;;;;;;;30.73;13.63;;;3.70;1.00;;;;;;5074693;28;20812;-72
2022/01/11 08:03:10;;;;;;;28.83;13.50;;;3.60;1.00;;;;;;5076498;28;20167;-72
2022/01/11 08:05:35;;;;;;;24.80;14.10;;;3.60;1.00;;;;;;5076532;28;20173;-72
2022/01/11 08:08:01;;;;;;;22.10;11.97;;;3.70;1.00;;;;;;5076429;28;20914;-73
2022/01/11 08:10:26;;;;;;;20.97;11.90;;;3.60;1.00;;;;;;5075432;28;20192;-72
2022/01/11 08:12:53;;;;;;;20.10;12.00;;;3.60;1.00;;;;;;5076393;28;20623;-72
2022/01/11 08:15:19;;;;;;;31.93;14.00;;;3.60;1.00;;;;;;5076117;28;20658;-70
2022/01/11 08:17:46;;;;;;;22.23;11.93;;;3.60;1.00;;;;;;5076082;28;20914;-73
2022/01/11 08:20:12;;;;;;;22.20;12.43;;;3.70;1.00;;;;;;5074302;28;20424;-72
2022/01/11 08:22:38;;;;;;;22.43;12.50;;;3.60;1.00;;;;;;5076188;28;20854;-71
2022/01/11 08:25:04;;;;;;;22.20;12.10;;;3.70;1.00;;;;;;5076059;28;20397;-73
2022/01/11 08:27:31;;;;;;;30.70;12.70;;;3.70;1.00;;;;;;5058268;28;20183;-71
2022/01/11 08:29:56;;;;;;;24.47;12.00;;;3.70;1.00;;;;;;5074778;28;20432;-72
2022/01/11 08:32:22;;;;;;;27.07;13.03;;;3.70;1.00;;;;;;5075816;28;20408;-72
2022/01/11 08:34:48;;;;;;;29.10;13.73;;;3.70;1.00;;;;;;5083513;28;20209;-69
2022/01/11 08:37:15;;;;;;;25.07;12.37;;;3.80;1.00;;;;;;5095639;28;20169;-73
2022/01/11 08:39:42;;;;;;;28.57;13.33;;;3.80;1.00;;;;;;5093786;28;20167;-73
2022/01/11 08:42:12;;;;;;;37.17;14.50;;;3.90;1.00;;;;;;5092956;28;20512;-73
2022/01/11 08:44:39;;;;;;;34.30;13.10;;;3.80;1.00;;;;;;5075826;28;20423;-71
2022/01/11 08:47:05;;;;;;;29.77;13.33;;;3.90;1.00;;;;;;5077181;28;20401;-73
2022/01/11 08:49:31;;;;;;;25.30;12.20;;;3.90;1.00;;;;;;5095119;28;20886;-71
2022/01/11 08:51:56;;;;;;;26.87;13.70;;;4.00;1.00;;;;;;5095597;28;20428;-68
2022/01/11 08:54:24;;;;;;;35.57;14.33;;;4.00;1.00;;;;;;5075486;28;20711;-72
2022/01/11 08:56:53;;;;;;;27.97;12.80;;;4.00;1.00;;;;;;5075778;28;20167;-68
2022/01/11 08:59:18;;;;;;;27.27;12.00;;;4.10;1.00;;;;;;5092495;28;20914;-70
2022/01/11 09:01:44;;;;;;;33.30;12.70;;;4.20;1.00;;;;;;5095670;28;20419;-72
2022/01/11 09:04:10;;;;;;;28.50;12.83;;;4.20;1.00;;;;;;5078227;28;20174;-66
2022/01/11 09:06:36;;;;;;;39.70;16.63;;;4.30;1.00;;;;;;5074056;28;20166;-70
2022/01/11 09:09:03;;;;;;;31.87;14.73;;;4.30;1.00;;;;;;5089486;28;20191;-72
2022/01/11 09:11:29;;;;;;;33.63;12.97;;;4.30;1.00;;;;;;5095627;28;20422;-69
2022/01/11 09:13:54;;;;;;;24.03;12.93;;;4.20;1.00;;;;;;5081583;28;20415;-72
2022/01/11 09:16:21;;;;;;;26.07;12.73;;;4.20;1.00;;;;;;5072942;28;20979;-73
2022/01/11 09:18:49;;;;;;;25.33;13.27;;;4.20;1.00;;;;;;5086013;28;20280;-70
2022/01/11 09:21:15;;;;;;;31.90;12.73;;;4.20;1.00;;;;;;5095265;28;20428;-71
2022/01/11 09:23:41;;;;;;;36.83;16.20;;;4.30;1.00;;;;;;5084372;28;20502;-71
2022/01/11 09:26:07;;;;;;;39.80;14.90;;;4.30;1.00;;;;;;5074993;28;20916;-72
2022/01/11 09:28:33;;;;;;;37.03;12.67;;;4.30;1.00;;;;;;5082189;28;20576;-72
2022/01/11 09:30:59;;;;;;;50.30;15.40;;;4.40;1.00;;;;;;5095012;28;20184;-71
2022/01/11 09:33:24;;;;;;;30.93;13.37;;;4.40;1.00;;;;;;5076355;28;20431;-73
2022/01/11 09:35:50;;;;;;;28.60;12.37;;;4.40;1.00;;;;;;5074211;28;20457;-71
2022/01/11 09:38:17;;;;;;;26.00;13.03;;;4.40;1.00;;;;;;5074900;28;20169;-71
2022/01/11 09:40:42;;;;;;;33.20;12.97;;;4.40;1.00;;;;;;5073604;28;20257;-73
2022/01/11 09:43:08;;;;;;;40.87;13.07;;;4.40;1.00;;;;;;5074685;28;20910;-70
2022/01/11 09:45:35;;;;;;;31.23;12.83;;;4.40;1.00;;;;;;5074518;28;20186;-71
2022/01/11 09:48:01;;;;;;;27.50;12.60;;;4.40;1.00;;;;;;5074507;28;20172;-70
2022/01/11 09:50:26;;;;;;;25.70;14.33;;;4.40;1.00;;;;;;5073472;28;20438;-72
2022/01/11 09:52:53;;;;;;;34.97;14.60;;;4.50;1.00;;;;;;5074403;28;20248;-71
2022/01/11 09:55:18;;;;;;;48.00;15.30;;;4.50;1.00;;;;;;5073758;28;20186;-71
2022/01/11 09:57:44;;;;;;;33.27;14.60;;;4.50;1.00;;;;;;5074404;28;20933;-71
2022/01/11 10:00:11;;;;;;;35.10;13.97;;;4.60;1.00;;;;;;5073498;28;20727;-72
2022/01/11 10:02:37;;;;;;;27.80;14.87;;;4.60;1.00;;;;;;5074271;28;20221;-72
2022/01/11 10:05:07;;;;;;;33.23;14.53;;;4.60;1.00;;;;;;5074187;28;20402;-72
2022/01/11 10:07:36;;;;;;;27.30;13.83;;;4.50;1.00;;;;;;5074093;28;20419;-71
2022/01/11 10:10:03;;;;;;;33.80;12.43;;;4.50;1.00;;;;;;5072902;28;20425;-72
2022/01/11 10:12:47;;;;;;;30.13;14.90;;;4.50;1.00;;;;;;5073380;28;20443;-70
2022/01/11 10:15:14;;;;;;;24.20;12.90;;;4.50;1.00;;;;;;5073936;28;20452;-70
2022/01/11 10:17:46;;;;;;;30.53;13.10;;;4.50;1.00;;;;;;5073519;28;20476;-71
2022/01/11 10:20:21;;;;;;;44.40;14.47;;;4.50;1.00;;;;;;5072978;28;20426;-71
2022/01/11 10:22:56;;;;;;;31.53;16.60;;;4.60;1.00;;;;;;5073610;28;20461;-73
2022/01/11 10:25:22;;;;;;;26.23;12.50;;;4.60;1.00;;;;;;5073794;28;20951;-72
2022/01/11 10:27:58;;;;;;;27.27;16.30;;;4.60;1.00;;;;;;5073473;28;20410;-74
2022/01/11 10:30:26;;;;;;;27.10;13.90;;;4.50;1.00;;;;;;5072297;28;20443;-70
2022/01/11 10:32:54;;;;;;;24.10;13.13;;;4.50;1.00;;;;;;5073655;28;20439;-71
2022/01/11 10:35:24;;;;;;;15.60;10.37;;;4.40;1.00;;;;;;5073484;28;20483;-71
2022/01/11 10:37:59;;;;;;;19.43;11.03;;;4.50;1.00;;;;;;5073630;28;20403;-71
2022/01/11 10:40:33;;;;;;;20.43;9.80;;;4.60;1.00;;;;;;5072567;28;20524;-72
2022/01/11 10:43:06;;;;;;;20.83;8.90;;;4.60;1.00;;;;;;5073571;28;20406;-72
2022/01/11 10:45:35;;;;;;;17.60;9.50;;;4.60;1.00;;;;;;5072922;28;20825;-73
2022/01/11 10:48:07;;;;;;;27.20;11.10;;;4.70;1.00;;;;;;5073444;28;20468;-73
2022/01/11 10:50:45;;;;;;;22.50;13.30;;;4.70;1.00;;;;;;5054633;28;20849;-72
2022/01/11 10:53:17;;;;;;;27.43;11.00;;;4.80;1.00;;;;;;5073346;28;20412;-71
2022/01/11 10:55:53;;;;;;;26.63;12.57;;;4.80;1.00;;;;;;5073146;28;20557;-71
2022/01/11 10:58:22;;;;;;;25.37;12.10;;;4.80;1.00;;;;;;5073026;28;20777;-71
2022/01/11 11:00:50;;;;;;;19.17;10.77;;;4.90;1.00;;;;;;5072444;28;20931;-71
2022/01/11 11:03:24;;;;;;;17.20;10.60;;;4.90;1.00;;;;;;5073263;28;20954;-71
2022/01/11 11:05:58;;;;;;;21.87;11.50;;;4.90;1.00;;;;;;5072703;28;20418;-71
2022/01/11 11:08:27;;;;;;;16.30;9.87;;;4.90;1.00;;;;;;5072878;28;21106;-71
2022/01/11 11:10:56;;;;;;;21.30;11.17;;;4.90;1.00;;;;;;5072482;28;20426;-71
2022/01/11 11:13:42;;;;;;;17.20;10.10;;;4.90;1.00;;;;;;5072916;28;20407;-72
2022/01/11 11:16:11;;;;;;;24.20;11.30;;;5.00;1.00;;;;;;5072954;28;20498;-69
2022/01/11 11:18:45;;;;;;;21.60;10.90;;;5.00;1.00;;;;;;5072298;28;20494;-71
2022/01/11 11:21:21;;;;;;;21.10;11.47;;;5.00;1.00;;;;;;5072707;28;20944;-71
2022/01/11 11:23:49;;;;;;;19.83;9.97;;;5.00;1.00;;;;;;5072387;28;20807;-71
2022/01/11 11:26:16;;;;;;;22.70;10.67;;;5.00;1.00;;;;;;5073006;28;20418;-72
2022/01/11 11:28:42;;;;;;;27.90;12.33;;;5.00;1.00;;;;;;5071892;28;20432;-72
2022/01/11 11:31:08;;;;;;;21.87;12.70;;;5.10;1.00;;;;;;5072346;28;20428;-71
2022/01/11 11:33:38;;;;;;;22.13;12.00;;;5.20;1.00;;;;;;5072716;28;20461;-73
2022/01/11 11:36:04;;;;;;;20.20;11.37;;;5.30;1.00;;;;;;5072837;28;20508;-72
2022/01/11 11:38:33;;;;;;;13.37;10.07;;;5.30;1.00;;;;;;5072244;28;20393;-77
2022/01/11 11:41:01;;;;;;;17.80;10.30;;;5.30;1.00;;;;;;5055020;28;20963;-73
2022/01/11 11:43:27;;;;;;;21.17;13.23;;;5.30;1.00;;;;;;5072042;28;20738;-73
2022/01/11 11:45:53;;;;;;;25.43;10.23;;;5.30;1.00;;;;;;5072720;28;20421;-72
2022/01/11 11:48:23;;;;;;;25.37;12.97;;;5.40;1.00;;;;;;5072619;28;20416;-72
2022/01/11 11:50:55;;;;;;;22.97;11.33;;;5.40;1.00;;;;;;5071855;28;20424;-72
2022/01/11 11:53:29;;;;;;;29.00;12.07;;;5.40;1.00;;;;;;5072811;28;20412;-73
2022/01/11 11:56:26;;;;;;;20.57;10.70;;;5.30;1.00;;;;;;5072645;28;20448;-71
2022/01/11 11:58:57;;;;;;;20.80;10.90;;;5.30;1.00;;;;;;5037538;28;20450;-73
2022/01/11 12:01:33;;;;;;;20.23;9.77;;;5.10;1.00;;;;;;5072314;28;20427;-72
2022/01/11 12:03:59;;;;;;;15.67;11.30;;;5.20;1.00;;;;;;5072484;28;20396;-71
2022/01/11 12:06:27;;;;;;;17.80;8.70;;;5.20;1.00;;;;;;5072566;28;20731;-71
2022/01/11 12:09:08;;;;;;;13.47;9.20;;;5.20;1.00;;;;;;5071460;28;20276;-71
2022/01/11 12:11:36;;;;;;;13.20;8.60;;;5.10;1.00;;;;;;5072430;28;20556;-72
2022/01/11 12:14:02;;;;;;;15.00;10.50;;;5.10;1.00;;;;;;5072505;28;20619;-73
2022/01/11 12:16:35;;;;;;;17.50;10.83;;;5.10;1.00;;;;;;5053865;28;21086;-74
2022/01/11 12:19:30;;;;;;;13.83;9.27;;;5.00;1.00;;;;;;5071335;28;20389;-71
2022/01/11 12:22:08;;;;;;;16.90;8.97;;;5.00;1.00;;;;;;5053707;28;20434;-73
2022/01/11 12:24:47;;;;;;;11.97;9.60;;;5.00;1.00;;;;;;5072442;28;20461;-71
2022/01/11 12:27:15;;;;;;;20.57;9.90;;;5.00;1.00;;;;;;5072357;28;20397;-72
2022/01/11 12:30:01;;;;;;;14.77;9.83;;;5.00;1.00;;;;;;5071180;28;20402;-73
2022/01/11 12:32:28;;;;;;;19.43;9.60;;;5.10;1.00;;;;;;5058215;28;20411;-72
2022/01/11 12:34:58;;;;;;;15.50;10.50;;;5.10;1.00;;;;;;5071813;28;20442;-73
2022/01/11 12:37:39;;;;;;;19.87;10.70;;;5.10;1.00;;;;;;5071951;28;20883;-73
2022/01/11 12:40:23;;;;;;;18.67;9.70;;;5.10;1.00;;;;;;5071195;28;20508;-73
2022/01/11 12:42:53;;;;;;;15.03;8.50;;;5.10;1.00;;;;;;5075864;28;20391;-71
2022/01/11 12:45:58;;;;;;;17.40;9.83;;;5.10;1.00;;;;;;5075948;28;20907;-72
2022/01/11 12:48:42;;;;;;;23.03;12.57;;;5.10;1.00;;;;;;5075434;28;20403;-72
2022/01/11 12:51:27;;;;;;;27.57;12.70;;;5.00;1.00;;;;;;5075653;28;20758;-72
2022/01/11 12:54:20;;;;;;;17.37;10.00;;;5.00;1.00;;;;;;5075723;28;20392;-72
2022/01/11 12:56:49;;;;;;;19.10;9.87;;;4.90;1.00;;;;;;5075132;28;20422;-71
2022/01/11 12:59:16;;;;;;;12.87;10.07;;;4.90;1.00;;;;;;5074889;28;20416;-71
2022/01/11 13:01:41;;;;;;;23.93;10.87;;;4.90;1.00;;;;;;5057515;28;20435;-71
2022/01/11 13:04:07;;;;;;;17.43;9.97;;;4.90;1.00;;;;;;5075510;28;20413;-72
2022/01/11 13:06:35;;;;;;;23.23;11.47;;;5.00;1.00;;;;;;5075439;28;20167;-72
2022/01/11 13:09:07;;;;;;;15.57;8.43;;;5.10;1.00;;;;;;5074397;28;20191;-71
2022/01/11 13:11:34;;;;;;;16.57;8.80;;;5.10;1.00;;;;;;5074473;28;20456;-72
2022/01/11 13:14:17;;;;;;;12.80;9.03;;;5.20;1.00;;;;;;5075030;28;20400;-73
2022/01/11 13:16:43;;;;;;;17.90;9.40;;;5.20;1.00;;;;;;5075264;28;20406;-73
2022/01/11 13:19:12;;;;;;;18.83;8.73;;;5.30;1.00;;;;;;5074335;28;20455;-71
2022/01/11 13:21:38;;;;;;;16.00;9.57;;;5.30;1.00;;;;;;5075082;28;20408;-71
2022/01/11 13:26:49;;;;;;;13.73;8.73;;;5.20;1.00;;;;;;5074968;28;20166;-73
2022/01/11 13:29:20;;;;;;;12.00;9.03;;;5.20;1.00;;;;;;5074101;28;20400;-72
2022/01/11 13:31:52;;;;;;;18.10;9.27;;;5.20;1.00;;;;;;5074331;28;20427;-72
2022/01/11 13:34:22;;;;;;;14.37;9.97;;;5.10;1.00;;;;;;5074704;28;20775;-72
2022/01/11 13:36:53;;;;;;;13.70;8.20;;;5.20;1.00;;;;;;5074770;28;20764;-73
2022/01/11 13:39:26;;;;;;;18.87;8.43;;;5.10;1.00;;;;;;5074084;28;20957;-71
2022/01/11 13:41:57;;;;;;;16.83;8.80;;;5.10;1.00;;;;;;5074836;28;20432;-71
2022/01/11 13:44:27;;;;;;;13.33;9.47;;;5.10;1.00;;;;;;5074634;28;20915;-73
2022/01/11 13:47:19;;;;;;;18.43;9.57;;;5.20;1.00;;;;;;5074490;28;20400;-72
2022/01/11 13:49:51;;;;;;;17.30;9.20;;;5.20;1.00;;;;;;5073329;28;20416;-73
2022/01/11 13:52:19;;;;;;;12.40;9.47;;;5.10;1.00;;;;;;5073397;28;20404;-71
2022/01/11 13:54:49;;;;;;;16.83;11.33;;;5.20;1.00;;;;;;5074292;28;20455;-73
2022/01/11 13:57:23;;;;;;;13.40;8.90;;;5.20;1.00;;;;;;5074473;28;20444;-71